createdAt,value
2023-02-05T00:00:15.661Z,59.60
2023-02-05T00:05:30.846Z,59.60
2023-02-05T00:10:46.614Z,59.70
2023-02-05T00:16:02.007Z,59.50
2023-02-05T00:21:17.702Z,59.50
2023-02-05T00:26:32.434Z,59.40
2023-02-05T00:31:47.651Z,59.50
2023-02-05T00:37:02.619Z,59.10
2023-02-05T00:42:17.610Z,58.80
2023-02-05T00:47:32.659Z,58.80
2023-02-05T00:52:47.665Z,59.00
2023-02-05T00:58:02.602Z,59.30
2023-02-05T01:03:17.598Z,59.10
2023-02-05T01:08:32.659Z,59.10
2023-02-05T01:13:49.004Z,58.70
2023-02-05T01:19:04.627Z,58.70
2023-02-05T01:24:19.943Z,58.70
2023-02-05T01:29:35.663Z,58.70
2023-02-05T01:34:50.628Z,59.20
2023-02-05T01:40:05.674Z,59.00
2023-02-05T01:45:21.005Z,59.00
2023-02-05T01:50:36.408Z,59.10
2023-02-05T01:55:51.906Z,59.00
2023-02-05T02:01:09.693Z,58.90
2023-02-05T02:06:24.741Z,59.30
2023-02-05T02:11:39.670Z,59.40
2023-02-05T02:16:54.986Z,58.90
2023-02-05T02:22:10.396Z,59.30
2023-02-05T02:27:25.954Z,59.00
2023-02-05T02:32:41.473Z,59.00
2023-02-05T02:37:56.700Z,59.00
2023-02-05T02:43:11.692Z,59.00
2023-02-05T02:48:26.945Z,58.70
2023-02-05T02:53:42.635Z,58.70
2023-02-05T02:58:57.685Z,58.60
2023-02-05T03:04:12.704Z,58.40
2023-02-05T03:09:28.684Z,58.50
2023-02-05T03:14:43.669Z,58.60
2023-02-05T03:19:58.677Z,58.50
2023-02-05T03:25:13.648Z,58.30
2023-02-05T03:30:29.710Z,58.20
2023-02-05T03:35:44.735Z,58.20
2023-02-05T03:40:59.672Z,58.40
2023-02-05T03:46:14.692Z,58.10
2023-02-05T03:51:30.625Z,58.30
2023-02-05T03:56:48.677Z,58.10
2023-02-05T04:02:04.795Z,58.30
2023-02-05T04:07:22.632Z,58.10
2023-02-05T04:12:37.624Z,58.20
2023-02-05T04:17:52.433Z,58.10
2023-02-05T04:23:09.677Z,57.80
2023-02-05T04:28:25.639Z,57.60
2023-02-05T04:33:43.820Z,57.70
2023-02-05T04:39:00.698Z,57.50
2023-02-05T04:44:15.633Z,57.60
2023-02-05T04:49:30.432Z,57.90
2023-02-05T04:54:45.994Z,57.90
2023-02-05T05:00:01.690Z,57.60
2023-02-05T05:05:16.648Z,57.70
2023-02-05T05:10:31.686Z,57.70
2023-02-05T05:15:46.482Z,57.70
2023-02-05T05:21:01.696Z,57.70
2023-02-05T05:26:16.728Z,57.70
2023-02-05T05:31:31.680Z,57.40
2023-02-05T05:36:46.635Z,57.30
2023-02-05T05:42:01.963Z,57.40
2023-02-05T05:47:17.656Z,57.10
2023-02-05T05:52:32.979Z,56.50
2023-02-05T05:57:48.707Z,56.60
2023-02-05T06:03:03.739Z,56.70
2023-02-05T06:08:18.953Z,56.60
2023-02-05T06:13:34.710Z,56.40
2023-02-05T06:18:49.618Z,55.80
2023-02-05T06:24:04.746Z,55.10
2023-02-05T06:29:20.931Z,54.70
2023-02-05T06:34:36.938Z,54.30
2023-02-05T06:39:53.002Z,53.50
2023-02-05T06:45:08.999Z,53.70
2023-02-05T06:50:24.704Z,53.70
2023-02-05T06:55:40.099Z,53.40
2023-02-05T07:00:55.444Z,53.30
2023-02-05T07:06:10.692Z,52.80
2023-02-05T07:11:25.706Z,53.00
2023-02-05T07:16:40.957Z,52.50
2023-02-05T07:21:56.713Z,52.30
2023-02-05T07:27:11.727Z,52.80
2023-02-05T07:32:27.054Z,53.70
2023-02-05T07:37:42.441Z,52.60
2023-02-05T07:42:57.440Z,52.50
2023-02-05T07:48:12.677Z,52.40
2023-02-05T07:53:27.676Z,52.20
2023-02-05T07:58:42.647Z,52.10
2023-02-05T08:03:57.519Z,52.30
2023-02-05T08:09:12.685Z,52.90
2023-02-05T08:14:27.718Z,52.30
2023-02-05T08:19:42.635Z,51.50
2023-02-05T08:24:58.131Z,51.00
2023-02-05T08:30:14.725Z,50.40
2023-02-05T08:35:29.649Z,49.90
2023-02-05T08:40:44.713Z,49.30
2023-02-05T08:45:59.675Z,48.70
2023-02-05T08:51:14.695Z,48.10
2023-02-05T08:56:29.640Z,47.90
2023-02-05T09:01:44.662Z,51.20
2023-02-05T09:06:59.665Z,52.10
2023-02-05T09:12:14.982Z,50.50
2023-02-05T09:17:30.640Z,49.70
2023-02-05T09:22:45.721Z,49.10
2023-02-05T09:28:00.774Z,48.60
2023-02-05T09:33:16.087Z,48.50
2023-02-05T09:38:32.003Z,47.90
2023-02-05T09:43:47.669Z,47.60
2023-02-05T09:49:02.690Z,47.50
2023-02-05T09:54:17.750Z,47.50
2023-02-05T09:59:32.687Z,47.30
2023-02-05T10:04:47.638Z,47.10
2023-02-05T10:10:02.708Z,46.90
2023-02-05T10:15:17.694Z,46.50
2023-02-05T10:20:32.662Z,46.20
2023-02-05T10:25:47.739Z,46.10
2023-02-05T10:31:03.148Z,45.90
2023-02-05T10:36:18.708Z,45.80
2023-02-05T10:41:33.716Z,45.60
2023-02-05T10:46:48.660Z,45.30
2023-02-05T10:52:03.699Z,45.30
2023-02-05T10:57:18.742Z,45.30
2023-02-05T11:02:33.992Z,45.20
2023-02-05T11:07:49.699Z,45.00
2023-02-05T11:13:04.735Z,45.00
2023-02-05T11:18:20.023Z,44.70
2023-02-05T11:23:36.042Z,44.70
2023-02-05T11:28:52.012Z,44.70
2023-02-05T11:34:07.431Z,44.60
2023-02-05T11:39:22.730Z,44.60
2023-02-05T11:44:37.703Z,44.50
2023-02-05T11:49:52.770Z,44.40
2023-02-05T11:55:07.933Z,44.30
2023-02-05T12:00:23.661Z,44.10
2023-02-05T12:05:38.672Z,43.90
2023-02-05T12:10:53.664Z,43.90
2023-02-05T12:16:08.862Z,43.90
2023-02-05T12:21:23.439Z,43.80
2023-02-05T12:26:38.646Z,43.80
2023-02-05T12:31:53.754Z,43.80
2023-02-05T12:37:08.677Z,43.80
2023-02-05T12:42:23.700Z,44.00
2023-02-05T12:47:38.638Z,43.90
2023-02-05T12:52:53.711Z,43.30
2023-02-05T12:58:08.685Z,43.40
2023-02-05T13:03:23.832Z,43.50
2023-02-05T13:08:38.686Z,43.60
2023-02-05T13:13:53.667Z,43.40
2023-02-05T13:19:08.738Z,43.50
2023-02-05T13:24:23.780Z,43.10
2023-02-05T13:29:38.741Z,42.70
2023-02-05T13:34:53.724Z,42.70
2023-02-05T13:40:08.703Z,42.90
2023-02-05T13:45:23.474Z,43.00
2023-02-05T13:50:38.683Z,42.70
2023-02-05T13:55:53.748Z,42.40
2023-02-05T14:01:08.752Z,42.40
2023-02-05T14:06:23.746Z,42.20
2023-02-05T14:11:38.688Z,42.00
2023-02-05T14:16:53.967Z,41.80
2023-02-05T14:22:09.990Z,41.80
2023-02-05T14:27:25.682Z,41.50
2023-02-05T14:32:40.698Z,41.50
2023-02-05T14:37:56.104Z,41.40
2023-02-05T14:43:11.699Z,41.60
2023-02-05T14:48:26.670Z,42.30
2023-02-05T14:53:41.744Z,42.10
2023-02-05T14:58:57.111Z,41.80
2023-02-05T15:04:12.788Z,41.70
2023-02-05T15:09:27.480Z,41.70
2023-02-05T15:14:42.697Z,41.80
2023-02-05T15:19:57.709Z,41.60
2023-02-05T15:25:12.777Z,41.70
2023-02-05T15:30:27.772Z,41.80
2023-02-05T15:35:43.133Z,41.70
2023-02-05T15:40:58.716Z,42.00
2023-02-05T15:46:13.746Z,42.00
2023-02-05T15:51:28.754Z,41.90
2023-02-05T15:56:43.701Z,42.00
2023-02-05T16:01:58.776Z,42.00
2023-02-05T16:07:13.680Z,41.80
2023-02-05T16:12:28.780Z,41.80
2023-02-05T16:17:44.008Z,41.90
2023-02-05T16:22:59.700Z,41.90
2023-02-05T16:28:14.745Z,41.80
2023-02-05T16:33:29.749Z,41.90
2023-02-05T16:38:44.665Z,42.00
2023-02-05T16:43:59.704Z,42.10
2023-02-05T16:49:14.752Z,42.20
2023-02-05T16:54:29.807Z,42.10
2023-02-05T16:59:44.675Z,42.20
2023-02-05T17:04:59.492Z,42.20
2023-02-05T17:10:14.710Z,42.30
2023-02-05T17:15:29.761Z,42.50
2023-02-05T17:20:44.769Z,42.60
2023-02-05T17:25:59.712Z,42.70
2023-02-05T17:31:14.516Z,42.70
2023-02-05T17:36:29.722Z,42.70
2023-02-05T17:41:45.108Z,42.80
2023-02-05T17:47:00.724Z,42.80
2023-02-05T17:52:15.816Z,42.90
2023-02-05T17:57:31.094Z,42.90
2023-02-05T18:02:46.781Z,45.50
2023-02-05T18:08:02.125Z,47.80
2023-02-05T18:13:17.989Z,48.40
2023-02-05T18:18:34.031Z,48.50
2023-02-05T18:23:49.726Z,48.80
2023-02-05T18:29:05.040Z,49.00
2023-02-05T18:34:20.778Z,49.30
2023-02-05T18:39:35.475Z,49.50
2023-02-05T18:44:50.710Z,49.20
2023-02-05T18:50:05.755Z,49.30
2023-02-05T18:55:20.728Z,49.40
2023-02-05T19:00:36.004Z,48.50
2023-02-05T19:05:51.827Z,48.60
2023-02-05T19:11:07.068Z,48.80
2023-02-05T19:16:22.771Z,48.80
2023-02-05T19:21:38.180Z,48.90
2023-02-05T19:26:54.076Z,49.30
2023-02-05T19:32:10.127Z,49.30
2023-02-05T19:37:26.073Z,49.60
2023-02-05T19:42:41.751Z,49.40
2023-02-05T19:47:56.996Z,50.20
2023-02-05T19:53:13.005Z,49.70
2023-02-05T19:58:28.717Z,49.70
2023-02-05T20:03:43.791Z,50.00
2023-02-05T20:08:58.712Z,50.20
2023-02-05T20:14:14.115Z,50.30
2023-02-05T20:19:29.761Z,50.50
2023-02-05T20:24:44.721Z,50.30
2023-02-05T20:29:59.440Z,50.10
2023-02-05T20:35:14.751Z,50.10
2023-02-05T20:40:29.826Z,50.20
2023-02-05T20:45:44.527Z,50.60
2023-02-05T20:50:59.732Z,50.70
2023-02-05T20:56:14.776Z,50.80
2023-02-05T21:01:30.066Z,50.40
2023-02-05T21:06:45.800Z,50.40
2023-02-05T21:12:00.764Z,50.80
2023-02-05T21:17:16.110Z,51.00
2023-02-05T21:22:31.703Z,51.50
2023-02-05T21:27:46.792Z,51.90
2023-02-05T21:33:01.700Z,52.30
2023-02-05T21:38:16.734Z,52.50
2023-02-05T21:43:32.035Z,52.60
2023-02-05T21:48:47.709Z,53.30
2023-02-05T21:54:02.703Z,53.60
2023-02-05T21:59:18.090Z,53.70
2023-02-05T22:04:34.053Z,53.90
2023-02-05T22:09:49.754Z,54.10
2023-02-05T22:15:05.062Z,54.40
2023-02-05T22:20:20.708Z,54.50
2023-02-05T22:25:35.949Z,54.30
2023-02-05T22:30:52.066Z,54.10
2023-02-05T22:36:07.699Z,54.00
2023-02-05T22:41:22.738Z,53.90
2023-02-05T22:46:37.727Z,53.90
2023-02-05T22:51:52.719Z,53.90
2023-02-05T22:57:07.715Z,53.80
2023-02-05T23:02:22.781Z,53.60
2023-02-05T23:07:38.126Z,53.50
2023-02-05T23:12:53.835Z,53.30
2023-02-05T23:18:08.745Z,53.20
2023-02-05T23:23:24.003Z,53.20
2023-02-05T23:28:39.737Z,53.50
2023-02-05T23:33:55.046Z,53.40
2023-02-05T23:39:11.276Z,53.40
2023-02-05T23:44:26.749Z,54.20
2023-02-05T23:49:42.092Z,53.70
2023-02-05T23:54:57.708Z,54.10
